Time;durP1;ratioP1;P1;durP2;ratioP2;P2;SDS_P1;SDS_P2;PMS_P1;PMS_P2;Temp;Humidity;BMP_temperature;BMP_pressure;BME280_temperature;BME280_humidity;BME280_pressure;Samples;Min_cycle;Max_cycle;Signal;HPM_P1;HPM_P2
2022/04/06 00:00:29;;;;;;;11.75;6.82;;;;;;;5.89;47.34;95050.75;5108867;27;20028;-67
2022/04/06 00:02:54;;;;;;;15.00;6.97;;;;;;;5.83;47.54;95040.72;5108344;28;20016;-69
2022/04/06 00:05:20;;;;;;;14.30;7.35;;;;;;;5.80;48.02;95041.84;5108989;27;20035;-69
2022/04/06 00:07:45;;;;;;;14.52;7.68;;;;;;;5.76;48.49;95047.66;5108702;28;20030;-67
2022/04/06 00:10:12;;;;;;;16.17;7.90;;;;;;;5.75;48.73;95046.84;5108704;28;20034;-68
2022/04/06 00:12:38;;;;;;;15.82;8.02;;;;;;;5.72;48.54;95052.47;5107199;28;20532;-70
2022/04/06 00:15:05;;;;;;;28.33;7.60;;;;;;;5.72;48.95;95047.16;5108463;28;20034;-70
2022/04/06 00:17:31;;;;;;;13.70;7.15;;;;;;;5.64;49.15;95055.88;5107154;28;20117;-71
2022/04/06 00:19:56;;;;;;;16.25;7.53;;;;;;;5.63;48.91;95050.72;5108448;28;20466;-68
2022/04/06 00:22:22;;;;;;;14.90;7.57;;;;;;;5.63;48.08;95056.03;5108619;28;20028;-67
2022/04/06 00:24:47;;;;;;;16.27;8.88;;;;;;;5.62;49.11;95054.38;5107379;28;20050;-67
2022/04/06 00:27:13;;;;;;;16.60;8.40;;;;;;;5.63;48.04;95058.72;5108843;28;20481;-68
2022/04/06 00:29:39;;;;;;;12.57;7.63;;;;;;;5.57;48.64;95053.03;5107840;28;20039;-67
2022/04/06 00:32:04;;;;;;;13.85;7.38;;;;;;;5.63;49.00;95061.38;5108181;28;20024;-69
2022/04/06 00:37:21;;;;;;;14.52;8.18;;;;;;;5.63;48.30;95061.38;5090882;28;20051;-66
2022/04/06 00:39:46;;;;;;;18.45;8.95;;;;;;;5.63;48.61;95058.72;5108520;28;20024;-67
2022/04/06 00:42:12;;;;;;;15.82;8.43;;;;;;;5.64;48.85;95063.88;5089168;28;20035;-68
2022/04/06 00:44:38;;;;;;;16.08;9.15;;;;;;;5.67;48.62;95060.09;5106999;28;20031;-68
2022/04/06 00:47:04;;;;;;;12.60;7.93;;;;;;;5.63;48.44;95064.03;5106338;28;20028;-70
2022/04/06 00:49:29;;;;;;;13.30;7.65;;;;;;;5.54;48.73;95060.50;5106324;28;20027;-68
2022/04/06 00:51:55;;;;;;;15.02;8.00;;;;;;;5.48;48.62;95061.09;5107973;28;20413;-69
2022/04/06 00:54:21;;;;;;;13.60;7.63;;;;;;;5.44;48.95;95065.91;5107500;28;20016;-69
2022/04/06 00:56:47;;;;;;;12.85;7.72;;;;;;;5.37;49.77;95065.66;5107106;28;20468;-70
2022/04/06 00:59:14;;;;;;;12.90;7.07;;;;;;;5.29;49.70;95061.13;5105995;28;20051;-68
2022/04/06 01:01:40;;;;;;;12.65;7.38;;;;;;;5.25;50.42;95065.09;5106728;28;20028;-68
2022/04/06 01:04:06;;;;;;;13.73;7.70;;;;;;;5.22;51.12;95068.06;5107300;28;20116;-69
2022/04/06 01:06:31;;;;;;;13.75;8.07;;;;;;;5.19;50.95;95068.38;5107349;28;20139;-70
2022/04/06 01:08:57;;;;;;;14.25;7.47;;;;;;;5.11;50.86;95073.59;5107552;28;20034;-70
2022/04/06 01:11:23;;;;;;;11.98;7.68;;;;;;;5.06;50.49;95066.91;5107240;28;20039;-69
2022/04/06 01:13:48;;;;;;;15.00;8.43;;;;;;;5.03;50.76;95069.84;5089597;28;20051;-67
2022/04/06 01:16:14;;;;;;;12.88;8.02;;;;;;;5.00;50.81;95069.34;5088921;28;20493;-69
2022/04/06 01:18:41;;;;;;;12.45;7.53;;;;;;;4.90;51.77;95066.75;5107501;28;20119;-69
2022/04/06 01:21:07;;;;;;;11.52;7.40;;;;;;;4.87;51.79;95064.41;5105413;28;20031;-70
2022/04/06 01:23:32;;;;;;;13.93;7.68;;;;;;;4.86;51.23;95065.38;5107217;28;20093;-67
2022/04/06 01:25:58;;;;;;;12.00;7.18;;;;;;;4.85;52.27;95061.06;5106601;28;20028;-70
2022/04/06 01:28:24;;;;;;;15.88;7.32;;;;;;;4.80;52.42;95058.84;5107046;28;20024;-68
2022/04/06 01:30:49;;;;;;;12.23;7.30;;;;;;;4.80;52.03;95062.31;5107215;28;20034;-70
2022/04/06 01:33:15;;;;;;;13.68;7.57;;;;;;;4.78;52.13;95066.97;5106764;28;20024;-68
2022/04/06 01:35:42;;;;;;;12.68;7.05;;;;;;;4.73;52.07;95057.75;5107618;28;20028;-67
2022/04/06 01:38:08;;;;;;;13.73;7.07;;;;;;;4.71;52.19;95055.25;5106173;28;20038;-67
2022/04/06 01:40:35;;;;;;;12.68;7.43;;;;;;;4.66;52.74;95061.03;5107143;28;20020;-67
2022/04/06 01:43:00;;;;;;;15.93;7.35;;;;;;;4.62;53.21;95056.16;5105134;28;20034;-67
2022/04/06 01:45:26;;;;;;;14.25;7.78;;;;;;;4.54;52.60;95055.09;5106989;28;20024;-68
2022/04/06 01:47:51;;;;;;;11.73;6.97;;;;;;;4.61;53.13;95062.47;5106616;28;20024;-69
2022/04/06 01:53:02;;;;;;;15.07;8.13;;;;;;;4.64;52.66;95067.47;5107262;28;20096;-71
2022/04/06 01:55:27;;;;;;;13.02;7.65;;;;;;;4.64;53.38;95070.13;5105848;28;20027;-68
2022/04/06 01:57:53;;;;;;;14.57;8.05;;;;;;;4.53;53.57;95069.34;5105551;28;20410;-67
2022/04/06 02:00:19;;;;;;;12.20;7.55;;;;;;;4.57;53.63;95065.41;5106423;28;20401;-68
2022/04/06 02:02:47;;;;;;;12.32;7.47;;;;;;;4.56;53.49;95069.03;5104721;28;20490;-69
2022/04/06 02:05:13;;;;;;;16.23;7.25;;;;;;;4.55;53.15;95070.03;5106329;28;20027;-69
2022/04/06 02:07:39;;;;;;;12.70;7.60;;;;;;;4.57;53.49;95080.50;5106126;28;20548;-67
2022/04/06 02:10:04;;;;;;;11.70;7.22;;;;;;;4.57;53.20;95075.19;5106694;28;20153;-68
2022/04/06 02:12:31;;;;;;;16.13;9.00;;;;;;;4.55;52.76;95080.66;5104418;28;20048;-70
2022/04/06 02:14:57;;;;;;;14.45;8.10;;;;;;;4.58;53.75;95077.72;5105293;28;20028;-69
2022/04/06 02:17:22;;;;;;;15.13;8.77;;;;;;;4.56;53.14;95077.00;5104388;28;20092;-68
2022/04/06 02:19:48;;;;;;;20.65;8.60;;;;;;;4.40;53.76;95072.34;5106081;28;20031;-69
2022/04/06 02:22:14;;;;;;;21.27;10.07;;;;;;;4.45;53.92;95075.41;5106234;28;20069;-69
2022/04/06 02:24:39;;;;;;;40.60;17.00;;;;;;;4.46;53.93;95076.25;5104553;28;20567;-69
2022/04/06 02:27:06;;;;;;;27.85;13.40;;;;;;;4.47;54.24;95077.06;5104845;28;20375;-69
2022/04/06 02:29:32;;;;;;;46.30;21.73;;;;;;;4.54;53.86;95078.16;5105509;28;20073;-70
2022/04/06 02:31:57;;;;;;;42.83;23.75;;;;;;;4.55;53.85;95083.31;5106225;28;20020;-66
2022/04/06 02:34:22;;;;;;;42.50;21.90;;;;;;;4.56;53.32;95090.28;5105236;28;20023;-69
2022/04/06 02:36:49;;;;;;;41.38;20.50;;;;;;;4.55;54.59;95087.78;5106266;28;20036;-69
2022/04/06 02:39:14;;;;;;;25.20;14.75;;;;;;;4.58;54.17;95092.78;5105285;28;20027;-69
2022/04/06 02:41:40;;;;;;;19.70;9.85;;;;;;;4.43;53.69;95073.88;5105799;28;20088;-69
2022/04/06 02:44:05;;;;;;;25.38;10.20;;;;;;;4.44;53.95;95091.47;5105432;28;20019;-68
2022/04/06 02:46:31;;;;;;;18.90;8.98;;;;;;;4.31;54.20;95087.34;5105904;28;20031;-69
2022/04/06 02:48:57;;;;;;;16.70;8.55;;;;;;;4.26;54.21;95092.25;5104392;28;20031;-70
2022/04/06 02:51:22;;;;;;;19.45;8.98;;;;;;;4.19;55.21;95093.84;5087039;28;20391;-68
2022/04/06 02:53:48;;;;;;;19.08;11.00;;;;;;;4.18;55.25;95102.75;5104750;28;20028;-69
2022/04/06 02:56:14;;;;;;;15.10;9.10;;;;;;;4.17;55.24;95101.94;5104937;28;20030;-68
2022/04/06 02:58:40;;;;;;;16.85;8.30;;;;;;;4.14;54.77;95101.41;5105732;28;20098;-70
2022/04/06 03:01:06;;;;;;;11.73;7.03;;;;;;;4.16;53.80;95102.09;5105297;28;20081;-68
2022/04/06 03:03:31;;;;;;;8.82;6.18;;;;;;;4.23;52.86;95099.66;5105391;28;20028;-69
2022/04/06 03:05:56;;;;;;;12.40;6.47;;;;;;;4.33;52.39;95101.31;5105262;28;20051;-68
2022/04/06 03:08:22;;;;;;;11.25;6.70;;;;;;;4.26;53.22;95099.38;5103467;28;20023;-72
2022/04/06 03:10:47;;;;;;;14.18;7.30;;;;;;;4.28;52.90;95105.38;5104828;28;20028;-70
2022/04/06 03:13:13;;;;;;;13.40;7.60;;;;;;;4.36;52.86;95108.16;5104457;28;20023;-69
2022/04/06 03:15:38;;;;;;;14.45;7.50;;;;;;;4.48;51.95;95110.63;5105760;28;20464;-69
2022/04/06 03:18:04;;;;;;;12.77;7.10;;;;;;;4.53;51.34;95101.22;5105154;28;20026;-69
2022/04/06 03:20:29;;;;;;;14.27;7.72;;;;;;;4.50;51.41;95112.13;5104150;28;20077;-67
2022/04/06 03:22:55;;;;;;;17.85;8.73;;;;;;;4.44;52.18;95112.72;5105130;28;20028;-68
2022/04/06 03:25:20;;;;;;;18.23;8.07;;;;;;;4.29;52.26;95118.50;5104719;28;20044;-69
2022/04/06 03:27:45;;;;;;;18.88;8.35;;;;;;;4.23;52.68;95111.13;5105751;28;20035;-66
2022/04/06 03:30:11;;;;;;;22.05;8.80;;;;;;;4.14;52.10;95112.84;5104401;28;20034;-70
2022/04/06 03:32:37;;;;;;;16.63;8.90;;;;;;;4.05;52.25;95127.81;5105812;28;20016;-69
2022/04/06 03:35:03;;;;;;;19.25;10.63;;;;;;;3.94;51.98;95122.66;5104559;28;20019;-67
2022/04/06 03:37:29;;;;;;;16.77;10.30;;;;;;;3.82;52.65;95122.84;5104790;28;20028;-67
2022/04/06 03:39:54;;;;;;;17.55;10.35;;;;;;;3.87;52.44;95119.75;5104889;28;20107;-68
2022/04/06 03:42:20;;;;;;;20.15;11.00;;;;;;;3.86;52.78;95125.19;5104844;28;20050;-68
2022/04/06 03:44:46;;;;;;;22.48;10.15;;;;;;;3.83;52.73;95129.84;5103813;28;20022;-67
2022/04/06 03:47:11;;;;;;;18.80;11.00;;;;;;;3.81;52.71;95131.78;5104584;28;20047;-70
2022/04/06 03:49:36;;;;;;;24.48;12.20;;;;;;;3.69;52.83;95127.63;5105477;28;20422;-67
2022/04/06 03:52:02;;;;;;;26.60;11.23;;;;;;;3.62;52.93;95134.44;5103104;28;20016;-68
2022/04/06 03:54:27;;;;;;;23.33;11.13;;;;;;;3.58;53.12;95134.75;5105157;28;20405;-68
2022/04/06 03:56:54;;;;;;;23.38;12.90;;;;;;;3.56;53.87;95130.56;5104513;28;20024;-68
2022/04/06 03:59:19;;;;;;;28.08;12.07;;;;;;;3.52;54.28;95137.97;5104709;28;20023;-68
2022/04/06 04:01:45;;;;;;;24.33;11.80;;;;;;;3.52;54.21;95145.91;5104794;28;20042;-68
2022/04/06 04:04:10;;;;;;;27.17;14.20;;;;;;;3.55;54.54;95144.78;5104551;28;20519;-68
2022/04/06 04:06:36;;;;;;;31.13;14.23;;;;;;;3.61;54.68;95141.56;5105184;28;20543;-68
2022/04/06 04:09:02;;;;;;;25.38;12.40;;;;;;;3.59;54.44;95148.84;5104807;28;20047;-68
2022/04/06 04:11:28;;;;;;;24.83;11.80;;;;;;;3.63;54.63;95144.91;5103979;28;20482;-70
2022/04/06 04:13:53;;;;;;;28.55;13.00;;;;;;;3.67;54.52;95148.13;5104070;28;20026;-71
2022/04/06 04:16:18;;;;;;;20.63;11.32;;;;;;;3.74;53.44;95154.53;5103565;28;20039;-67
2022/04/06 04:18:44;;;;;;;38.13;13.40;;;;;;;3.67;53.80;95158.75;5104310;28;20088;-70
2022/04/06 04:23:53;;;;;;;25.23;12.77;;;;;;;3.56;54.97;95163.19;5109112;28;20464;-68
2022/04/06 04:26:19;;;;;;;18.60;10.20;;;;;;;3.69;54.64;95167.41;5107495;28;20043;-69
2022/04/06 04:28:44;;;;;;;18.48;8.93;;;;;;;3.80;53.96;95164.63;5108884;28;20020;-69
2022/04/06 04:31:09;;;;;;;19.30;8.93;;;;;;;3.87;53.50;95170.16;5107527;28;20035;-71
2022/04/06 04:33:35;;;;;;;18.60;9.90;;;;;;;3.90;53.23;95166.41;5107099;28;20024;-69
2022/04/06 04:36:00;;;;;;;20.63;10.15;;;;;;;3.98;53.19;95177.16;5107827;28;20027;-68
2022/04/06 04:38:26;;;;;;;22.10;10.45;;;;;;;4.05;53.19;95178.25;5089180;28;20050;-67
2022/04/06 04:40:51;;;;;;;21.33;9.90;;;;;;;4.17;52.62;95181.59;5107668;28;20405;-69
2022/04/06 04:43:17;;;;;;;16.35;9.60;;;;;;;4.26;52.04;95182.53;5107938;28;20053;-68
2022/04/06 04:45:42;;;;;;;14.60;8.55;;;;;;;4.39;52.14;95184.00;5108227;28;20027;-70
2022/04/06 04:48:08;;;;;;;16.55;8.38;;;;;;;4.48;51.46;95188.50;5107833;28;20038;-68
2022/04/06 04:50:33;;;;;;;16.23;9.23;;;;;;;4.64;51.14;95200.31;5107832;28;20025;-68
2022/04/06 04:52:59;;;;;;;17.75;10.65;;;;;;;4.77;50.98;95195.47;5107145;28;20072;-67
2022/04/06 04:55:24;;;;;;;18.55;9.68;;;;;;;4.86;51.97;95201.75;5107732;28;20049;-67
2022/04/06 04:57:49;;;;;;;20.02;10.18;;;;;;;4.93;51.57;95200.16;5107589;28;20028;-69
2022/04/06 05:00:15;;;;;;;16.25;9.18;;;;;;;5.12;50.93;95208.19;5107724;28;20027;-67
2022/04/06 05:02:41;;;;;;;18.20;8.32;;;;;;;5.31;49.63;95204.56;5107725;28;20027;-71
2022/04/06 05:05:07;;;;;;;15.23;7.97;;;;;;;5.51;49.43;95205.28;5107332;28;20031;-68
2022/04/06 05:07:37;;;;;;;13.40;8.63;;;;;;;5.73;48.70;95207.63;5107699;28;20110;-68
2022/04/06 05:10:04;;;;;;;17.67;8.35;;;;;;;5.89;48.47;95206.94;5107113;28;20012;-68
2022/04/06 05:12:29;;;;;;;16.73;8.98;;;;;;;6.00;48.45;95219.16;5107653;28;20126;-68
2022/04/06 05:14:55;;;;;;;18.45;9.35;;;;;;;6.10;48.22;95219.97;5107197;28;20482;-68
2022/04/06 05:17:20;;;;;;;19.00;8.23;;;;;;;6.32;47.54;95222.28;5107487;28;20402;-68
2022/04/06 05:19:45;;;;;;;16.33;8.35;;;;;;;6.47;47.60;95228.72;5107299;28;20024;-69
2022/04/06 05:22:11;;;;;;;15.85;7.72;;;;;;;6.61;46.73;95229.16;5106956;28;20038;-70
2022/04/06 05:24:36;;;;;;;16.08;7.10;;;;;;;6.80;47.16;95231.56;5105740;28;20434;-67
2022/04/06 05:27:03;;;;;;;14.10;7.20;;;;;;;7.03;46.52;95236.34;5106687;27;20023;-68
2022/04/06 05:29:29;;;;;;;14.63;7.25;;;;;;;7.07;46.34;95234.22;5107652;28;20065;-68
2022/04/06 05:31:54;;;;;;;14.75;6.82;;;;;;;7.27;45.67;95239.28;5106039;28;20036;-68
2022/04/06 05:34:20;;;;;;;12.93;6.93;;;;;;;7.42;45.18;95239.50;5107346;28;20035;-67
2022/04/06 05:36:45;;;;;;;11.80;6.95;;;;;;;7.51;45.75;95238.50;5106501;28;20028;-68
2022/04/06 05:39:10;;;;;;;10.80;5.88;;;;;;;7.72;45.30;95241.75;5106875;28;20027;-69
2022/04/06 05:41:36;;;;;;;18.83;7.15;;;;;;;7.80;44.93;95239.09;5106977;28;20028;-67
2022/04/06 05:44:02;;;;;;;12.20;7.13;;;;;;;8.11;44.80;95242.97;5106524;28;20023;-68
2022/04/06 05:46:27;;;;;;;11.32;6.70;;;;;;;8.21;43.96;95240.13;5107359;27;20028;-68
2022/04/06 05:48:53;;;;;;;9.85;6.25;;;;;;;8.34;44.13;95252.97;5105668;28;20548;-68
2022/04/06 05:51:18;;;;;;;16.10;7.07;;;;;;;8.45;44.63;95246.47;5107161;28;20125;-68
2022/04/06 05:53:44;;;;;;;20.90;7.78;;;;;;;8.60;44.32;95244.81;5104562;28;20024;-68
2022/04/06 05:56:09;;;;;;;19.23;7.50;;;;;;;8.74;44.33;95247.78;5106763;28;20023;-68
2022/04/06 05:58:34;;;;;;;13.90;6.55;;;;;;;8.89;43.25;95245.25;5106518;28;20020;-67
2022/04/06 06:01:00;;;;;;;13.88;6.68;;;;;;;9.03;43.02;95251.72;5105959;28;20019;-68
2022/04/06 06:03:26;;;;;;;13.95;7.28;;;;;;;9.10;42.29;95250.03;5106618;28;20023;-68
2022/04/06 06:05:51;;;;;;;19.52;6.78;;;;;;;9.27;42.06;95248.13;5105693;28;20030;-67
2022/04/06 06:08:16;;;;;;;10.57;6.40;;;;;;;9.46;41.76;95247.91;5106610;28;20031;-68
2022/04/06 06:10:42;;;;;;;12.38;7.18;;;;;;;9.64;43.31;95245.78;5105665;28;20020;-68
2022/04/06 06:13:07;;;;;;;13.82;6.72;;;;;;;9.71;42.49;95245.91;5106117;28;20020;-69
2022/04/06 06:15:33;;;;;;;18.27;7.10;;;;;;;9.89;41.47;95242.97;5105855;28;20024;-67
2022/04/06 06:17:58;;;;;;;11.70;6.68;;;;;;;9.97;42.92;95242.09;5105768;28;20032;-67
2022/04/06 06:20:24;;;;;;;13.45;7.55;;;;;;;10.05;42.12;95240.34;5106070;28;20024;-68
2022/04/06 06:22:49;;;;;;;12.80;8.07;;;;;;;10.21;41.21;95248.28;5105431;28;20031;-68
2022/04/06 06:25:14;;;;;;;16.17;7.47;;;;;;;10.28;41.82;95245.72;5106065;28;20374;-69
2022/04/06 06:27:40;;;;;;;13.00;8.82;;;;;;;10.30;41.79;95242.84;5105333;28;20513;-68
2022/04/06 06:30:07;;;;;;;12.85;8.45;;;;;;;10.58;42.32;95239.63;5106034;28;20106;-68
2022/04/06 06:32:32;;;;;;;12.00;8.68;;;;;;;10.65;42.54;95237.03;5103884;28;20451;-67
2022/04/06 06:34:57;;;;;;;12.27;9.27;;;;;;;10.83;42.38;95240.22;5105565;28;20031;-68
2022/04/06 06:37:23;;;;;;;20.75;8.70;;;;;;;10.95;41.63;95231.72;5105535;28;20539;-68
2022/04/06 06:39:49;;;;;;;15.55;9.40;;;;;;;11.11;41.69;95239.59;5105347;28;20019;-68
2022/04/06 06:42:15;;;;;;;13.68;8.63;;;;;;;11.28;40.43;95241.25;5105036;28;20043;-69
2022/04/06 06:44:40;;;;;;;12.85;8.55;;;;;;;11.27;41.62;95240.41;5105301;28;20023;-68
2022/04/06 06:47:06;;;;;;;13.68;7.70;;;;;;;11.55;40.29;95236.22;5105874;28;20031;-68
2022/04/06 06:49:31;;;;;;;11.07;7.55;;;;;;;11.72;39.80;95236.84;5104662;28;20026;-69
2022/04/06 06:51:57;;;;;;;15.25;7.63;;;;;;;11.70;39.88;95236.19;5105489;28;20417;-68
2022/04/06 06:54:22;;;;;;;15.07;8.60;;;;;;;11.77;39.85;95244.34;5103523;28;20019;-68
2022/04/06 06:56:48;;;;;;;14.02;8.40;;;;;;;11.98;39.48;95236.28;5103924;28;20020;-68
2022/04/06 06:59:13;;;;;;;15.45;8.38;;;;;;;12.20;39.52;95236.31;5105155;28;20430;-67
2022/04/06 07:01:38;;;;;;;17.90;8.52;;;;;;;12.31;39.08;95228.78;5104969;28;20027;-70
2022/04/06 07:04:04;;;;;;;16.27;8.32;;;;;;;12.41;39.05;95231.97;5105543;28;20016;-68
2022/04/06 07:06:29;;;;;;;14.85;8.30;;;;;;;12.55;39.11;95229.38;5104864;28;20015;-67
2022/04/06 07:08:55;;;;;;;15.57;8.30;;;;;;;12.63;39.22;95225.72;5105774;28;20020;-70
2022/04/06 07:11:20;;;;;;;13.43;7.72;;;;;;;12.80;39.00;95227.09;5104423;28;20024;-69
2022/04/06 07:13:46;;;;;;;13.43;7.60;;;;;;;12.95;38.94;95232.38;5105467;28;20019;-68
2022/04/06 07:16:11;;;;;;;13.65;8.13;;;;;;;13.17;38.43;95226.91;5104696;28;20024;-68
2022/04/06 07:18:37;;;;;;;23.35;8.98;;;;;;;12.98;38.94;95229.28;5105032;28;20023;-68
2022/04/06 07:21:02;;;;;;;16.70;9.18;;;;;;;12.98;38.84;95223.06;5105073;28;20027;-67
2022/04/06 07:23:28;;;;;;;13.50;8.00;;;;;;;13.12;39.11;95226.69;5104755;28;20301;-69
2022/04/06 07:25:53;;;;;;;19.23;8.80;;;;;;;13.27;39.16;95225.75;5105219;28;20089;-68
2022/04/06 07:28:19;;;;;;;16.17;9.25;;;;;;;13.41;38.92;95226.63;5104096;28;20028;-66
2022/04/06 07:30:44;;;;;;;20.63;9.73;;;;;;;13.42;38.70;95223.72;5105123;28;20474;-69
2022/04/06 07:33:12;;;;;;;20.75;9.15;;;;;;;13.53;39.07;95218.81;5104565;28;20028;-68
2022/04/06 07:35:38;;;;;;;18.17;9.07;;;;;;;13.65;38.92;95221.78;5105098;28;20031;-68
2022/04/06 07:38:04;;;;;;;14.95;8.10;;;;;;;13.70;38.37;95224.72;5104980;28;20024;-68
2022/04/06 07:40:29;;;;;;;18.17;8.27;;;;;;;13.86;39.02;95228.06;5104363;28;20031;-67
2022/04/06 07:42:55;;;;;;;16.83;8.27;;;;;;;13.97;38.56;95227.47;5105020;28;20467;-67
2022/04/06 07:45:21;;;;;;;16.45;8.38;;;;;;;14.03;37.83;95228.53;5102819;28;20084;-67
2022/04/06 07:47:48;;;;;;;14.40;8.32;;;;;;;14.10;37.72;95224.00;5105695;28;20478;-68
2022/04/06 07:50:13;;;;;;;16.80;8.63;;;;;;;14.16;37.75;95223.16;5104023;28;20030;-69
2022/04/06 07:52:39;;;;;;;13.57;7.90;;;;;;;14.24;38.69;95230.22;5104994;28;20012;-67
2022/04/06 07:55:06;;;;;;;15.75;8.23;;;;;;;14.39;38.10;95224.66;5107250;28;20073;-68
2022/04/06 07:57:32;;;;;;;18.15;8.82;;;;;;;14.32;37.66;95226.50;5108437;28;20104;-68
2022/04/06 07:59:58;;;;;;;14.25;7.75;;;;;;;14.35;37.10;95223.38;5109458;28;20024;-69
2022/04/06 08:02:23;;;;;;;14.98;6.22;;;;;;;14.33;36.94;95222.78;5106606;28;20470;-67
2022/04/06 08:04:50;;;;;;;17.75;6.55;;;;;;;14.42;37.12;95226.94;5109055;28;20031;-67
2022/04/06 08:07:15;;;;;;;16.63;8.93;;;;;;;14.44;37.37;95219.44;5107818;28;20035;-67
2022/04/06 08:09:41;;;;;;;14.55;9.07;;;;;;;14.48;37.56;95219.88;5107723;28;20015;-67
2022/04/06 08:12:06;;;;;;;16.52;9.15;;;;;;;14.56;37.26;95216.97;5108000;28;20028;-67
2022/04/06 08:14:32;;;;;;;12.85;8.40;;;;;;;14.69;37.36;95210.75;5108726;28;20119;-69
2022/04/06 08:16:58;;;;;;;12.38;7.55;;;;;;;14.74;37.43;95218.22;5108720;28;20024;-68
2022/04/06 08:19:24;;;;;;;16.23;7.97;;;;;;;14.79;36.74;95214.88;5108102;28;20531;-68
2022/04/06 08:21:50;;;;;;;11.02;6.95;;;;;;;14.85;36.70;95213.25;5109043;28;20032;-67
2022/04/06 08:24:15;;;;;;;16.50;7.50;;;;;;;14.95;36.52;95217.19;5107886;28;20057;-67
2022/04/06 08:26:41;;;;;;;16.70;7.18;;;;;;;14.74;37.76;95218.22;5108497;28;20054;-69
2022/04/06 08:29:06;;;;;;;12.48;6.88;;;;;;;14.88;37.52;95218.25;5107656;28;20031;-67
2022/04/06 08:31:32;;;;;;;20.98;7.43;;;;;;;14.98;37.15;95213.22;5108330;27;20020;-67
2022/04/06 08:33:57;;;;;;;17.88;8.40;;;;;;;15.06;36.60;95204.06;5108071;28;20031;-67
2022/04/06 08:36:23;;;;;;;15.00;8.20;;;;;;;15.12;36.22;95199.72;5108003;28;20089;-68
2022/04/06 08:38:48;;;;;;;12.05;7.53;;;;;;;15.19;36.12;95209.47;5108478;28;20489;-69
2022/04/06 08:41:13;;;;;;;15.70;8.13;;;;;;;15.22;36.29;95200.09;5107826;28;20023;-68
2022/04/06 08:43:39;;;;;;;16.33;8.35;;;;;;;15.30;36.03;95204.41;5108228;28;20023;-67
2022/04/06 08:46:04;;;;;;;18.65;8.88;;;;;;;15.33;36.24;95204.03;5106218;28;20028;-68
2022/04/06 08:48:30;;;;;;;14.75;7.85;;;;;;;15.44;35.45;95194.41;5106940;28;20424;-68
2022/04/06 08:50:57;;;;;;;15.15;7.38;;;;;;;15.51;35.84;95197.91;5089086;28;20024;-68
2022/04/06 08:53:22;;;;;;;10.77;6.45;;;;;;;15.59;35.59;95186.03;5106755;28;20118;-68
2022/04/06 08:55:47;;;;;;;15.20;6.68;;;;;;;15.68;34.89;95192.03;5106170;28;20020;-67
2022/04/06 08:58:13;;;;;;;17.48;6.75;;;;;;;15.79;34.85;95187.81;5107582;28;20020;-68
2022/04/06 09:00:38;;;;;;;12.02;6.10;;;;;;;15.80;34.72;95189.47;5107668;28;20040;-67
2022/04/06 09:03:04;;;;;;;12.73;6.40;;;;;;;15.86;35.16;95185.06;5107091;28;20020;-67
2022/04/06 09:05:32;;;;;;;12.77;5.03;;;;;;;15.94;34.13;95191.03;5106174;28;20024;-68
2022/04/06 09:07:58;;;;;;;11.70;5.57;;;;;;;15.84;33.82;95179.88;5107102;28;20400;-68
2022/04/06 09:10:28;;;;;;;9.43;5.60;;;;;;;15.93;34.05;95181.28;5107615;28;20068;-66
2022/04/06 09:13:09;;;;;;;9.63;5.28;;;;;;;16.02;33.48;95172.94;5106916;27;20494;-67
2022/04/06 09:15:34;;;;;;;13.82;5.30;;;;;;;16.10;33.66;95167.28;5106890;28;20030;-68
2022/04/06 09:18:00;;;;;;;10.07;5.07;;;;;;;16.17;33.38;95170.75;5107810;28;20016;-68
2022/04/06 09:20:26;;;;;;;10.07;5.65;;;;;;;16.26;32.94;95163.22;5105590;28;20387;-68
2022/04/06 09:22:51;;;;;;;12.68;5.07;;;;;;;16.34;32.60;95161.28;5107882;28;20487;-67
2022/04/06 09:25:19;;;;;;;8.18;5.00;;;;;;;16.38;30.89;95155.19;5106343;28;20456;-68
2022/04/06 09:27:45;;;;;;;8.88;4.18;;;;;;;16.34;29.85;95154.00;5107112;28;20161;-67
2022/04/06 09:30:11;;;;;;;7.60;4.18;;;;;;;16.38;28.46;95144.38;5106773;28;20023;-68
2022/04/06 09:32:36;;;;;;;7.20;3.67;;;;;;;16.55;29.90;95135.69;5107176;28;20099;-67
2022/04/06 09:35:26;;;;;;;9.13;4.00;;;;;;;16.60;28.91;95145.88;5107203;28;20016;-68
2022/04/06 09:38:22;;;;;;;5.45;3.95;;;;;;;16.61;27.83;95133.97;5105160;28;20103;-68
2022/04/06 09:40:48;;;;;;;8.20;3.65;;;;;;;16.43;27.43;95131.00;5106924;27;20100;-68
2022/04/06 09:43:27;;;;;;;6.60;3.47;;;;;;;16.59;28.85;95134.19;5105503;28;20031;-68
2022/04/06 09:48:56;;;;;;;8.20;3.83;;;;;;;16.92;28.40;95132.22;5106139;28;20038;-68
2022/04/06 09:51:22;;;;;;;5.28;3.33;;;;;;;17.10;28.18;95117.91;5106124;27;20107;-68
2022/04/06 09:53:48;;;;;;;10.98;4.20;;;;;;;17.21;29.38;95118.19;5106676;28;20073;-68
2022/04/06 09:56:14;;;;;;;6.57;2.78;;;;;;;17.27;28.75;95111.84;5105018;28;20039;-68
2022/04/06 09:58:39;;;;;;;5.72;3.30;;;;;;;17.25;28.00;95109.38;5105154;28;20031;-69
2022/04/06 10:01:05;;;;;;;4.97;2.90;;;;;;;17.30;28.47;95106.81;5088131;28;20034;-69
2022/04/06 10:03:30;;;;;;;7.65;3.40;;;;;;;17.35;28.77;95103.41;5087843;28;20080;-68
2022/04/06 10:05:56;;;;;;;5.35;2.50;;;;;;;17.23;26.78;95105.25;5088340;28;20108;-68
2022/04/06 10:08:21;;;;;;;5.20;2.75;;;;;;;17.15;27.38;95100.97;5087331;28;20352;-69
2022/04/06 10:10:47;;;;;;;5.88;2.60;;;;;;;17.22;28.08;95098.97;5106914;28;20031;-67
2022/04/06 10:13:13;;;;;;;5.40;2.35;;;;;;;17.18;27.29;95100.50;5105963;28;20024;-68
2022/04/06 10:15:38;;;;;;;5.95;2.53;;;;;;;17.21;27.82;95091.06;5106192;28;20034;-67
2022/04/06 10:18:04;;;;;;;3.97;2.25;;;;;;;17.18;28.53;95087.75;5086543;28;20035;-68
2022/04/06 10:20:36;;;;;;;4.07;2.10;;;;;;;17.28;28.13;95081.81;5104755;28;20020;-68
2022/04/06 10:23:22;;;;;;;4.82;2.00;;;;;;;17.37;27.57;95071.50;5106092;28;20425;-67
2022/04/06 10:26:19;;;;;;;4.53;2.05;;;;;;;17.50;28.11;95069.66;5087342;28;20044;-68
2022/04/06 10:28:47;;;;;;;4.70;1.80;;;;;;;17.54;27.59;95065.41;5105851;28;20475;-68
2022/04/06 10:31:25;;;;;;;5.13;1.80;;;;;;;17.54;27.21;95068.13;5104588;28;20089;-68
2022/04/06 10:33:51;;;;;;;5.05;1.67;;;;;;;17.55;27.19;95064.38;5105502;28;20028;-68
2022/04/06 10:36:20;;;;;;;4.63;1.77;;;;;;;17.53;26.64;95061.06;5106160;28;20065;-68
2022/04/06 10:39:06;;;;;;;3.08;1.65;;;;;;;17.55;27.03;95058.94;5105021;28;20122;-67
2022/04/06 10:41:35;;;;;;;4.25;1.65;;;;;;;17.54;26.85;95065.41;5106293;28;20465;-67
2022/04/06 10:44:00;;;;;;;4.22;1.83;;;;;;;17.50;27.00;95056.09;5104096;28;20374;-67
2022/04/06 10:46:34;;;;;;;3.00;1.92;;;;;;;17.62;27.37;95043.41;5105564;28;20034;-68
2022/04/06 10:49:14;;;;;;;4.35;2.20;;;;;;;17.61;27.22;95044.47;5104661;28;20019;-68
2022/04/06 10:51:46;;;;;;;2.85;1.83;;;;;;;17.67;27.76;95037.28;5104848;28;20088;-68
2022/04/06 10:54:14;;;;;;;6.28;2.08;;;;;;;17.79;28.07;95034.59;5105780;28;20059;-67
2022/04/06 10:56:48;;;;;;;4.13;2.42;;;;;;;17.87;28.01;95031.56;5105065;28;20552;-69
2022/04/06 10:59:23;;;;;;;6.38;3.47;;;;;;;17.82;27.43;95026.00;5105226;28;20024;-68
2022/04/06 11:01:48;;;;;;;7.10;3.20;;;;;;;17.82;28.35;95019.75;5105889;28;20031;-67
2022/04/06 11:04:21;;;;;;;7.25;3.00;;;;;;;18.00;30.25;95019.66;5104592;28;20110;-68
2022/04/06 11:07:06;;;;;;;6.55;2.90;;;;;;;18.11;28.97;95018.03;5105970;28;20032;-68
2022/04/06 11:12:25;;;;;;;5.25;2.90;;;;;;;18.11;29.14;95015.31;5105467;28;20034;-68
2022/04/06 11:15:11;;;;;;;9.55;3.60;;;;;;;18.18;29.41;95019.81;5105731;28;20144;-68
2022/04/06 11:17:44;;;;;;;5.07;3.03;;;;;;;18.21;28.79;95019.34;5090184;28;20042;-68
2022/04/06 11:20:14;;;;;;;7.88;3.28;;;;;;;18.25;27.59;95017.81;5105421;28;20459;-68
2022/04/06 11:22:42;;;;;;;16.55;3.70;;;;;;;18.23;27.13;95019.94;5103575;28;20035;-68
2022/04/06 11:25:20;;;;;;;8.57;3.50;;;;;;;18.23;27.54;95009.91;5105105;28;20658;-68
2022/04/06 11:27:45;;;;;;;7.65;3.65;;;;;;;18.31;27.98;95011.44;5105568;28;20420;-69
2022/04/06 11:30:14;;;;;;;6.55;3.78;;;;;;;18.33;27.08;95003.06;5107761;28;20034;-68
2022/04/06 11:32:40;;;;;;;7.13;3.67;;;;;;;18.37;28.01;94999.66;5109833;28;20042;-68
2022/04/06 11:35:07;;;;;;;6.15;3.80;;;;;;;18.52;28.90;94988.28;5108854;28;20024;-68
2022/04/06 11:37:48;;;;;;;6.80;4.25;;;;;;;18.59;28.47;94982.72;5109133;28;20102;-67
2022/04/06 11:40:21;;;;;;;7.93;3.38;;;;;;;18.69;27.99;94986.72;5109245;28;20047;-68